sensor_id;sensor_type;location;lat;lon;timestamp;pressure;altitude;pressure_sealevel;temperature;humidity
60246;BME280;46107;53.356;-1.524;2023-05-24T00:01:55;99878.06;;;9.29;62.18
60246;BME280;46107;53.356;-1.524;2023-05-24T00:04:23;99884.68;;;9.53;60.83
60246;BME280;46107;53.356;-1.524;2023-05-24T00:06:51;99882.51;;;10.10;60.31
60246;BME280;46107;53.356;-1.524;2023-05-24T00:09:19;99883.09;;;9.55;62.09
60246;BME280;46107;53.356;-1.524;2023-05-24T00:11:46;99888.92;;;10.54;60.05
60246;BME280;46107;53.356;-1.524;2023-05-24T00:14:13;99884.90;;;10.25;59.83
60246;BME280;46107;53.356;-1.524;2023-05-24T00:16:41;99888.50;;;9.91;60.89
60246;BME280;46107;53.356;-1.524;2023-05-24T00:19:09;99885.39;;;10.46;58.02
60246;BME280;46107;53.356;-1.524;2023-05-24T00:21:37;99888.25;;;10.56;58.53
60246;BME280;46107;53.356;-1.524;2023-05-24T00:24:05;99884.35;;;11.18;55.93
60246;BME280;46107;53.356;-1.524;2023-05-24T00:26:32;99884.11;;;11.24;56.37
60246;BME280;46107;53.356;-1.524;2023-05-24T00:29:00;99884.65;;;11.13;56.61
60246;BME280;46107;53.356;-1.524;2023-05-24T00:31:28;99884.43;;;11.05;57.28
60246;BME280;46107;53.356;-1.524;2023-05-24T00:33:55;99880.64;;;10.97;56.61
60246;BME280;46107;53.356;-1.524;2023-05-24T00:36:23;99874.47;;;10.35;57.72
60246;BME280;46107;53.356;-1.524;2023-05-24T00:38:50;99877.02;;;9.24;61.53
60246;BME280;46107;53.356;-1.524;2023-05-24T00:41:17;99871.81;;;9.09;61.71
60246;BME280;46107;53.356;-1.524;2023-05-24T00:43:45;99869.36;;;9.50;61.28
60246;BME280;46107;53.356;-1.524;2023-05-24T00:46:16;99870.14;;;10.01;59.56
60246;BME280;46107;53.356;-1.524;2023-05-24T00:48:45;99861.31;;;10.23;58.63
60246;BME280;46107;53.356;-1.524;2023-05-24T00:51:13;99863.29;;;10.50;59.03
60246;BME280;46107;53.356;-1.524;2023-05-24T00:53:41;99864.24;;;9.84;60.07
60246;BME280;46107;53.356;-1.524;2023-05-24T00:56:12;99856.44;;;10.61;59.01
60246;BME280;46107;53.356;-1.524;2023-05-24T00:58:40;99866.05;;;9.79;60.04
60246;BME280;46107;53.356;-1.524;2023-05-24T01:01:09;99871.68;;;10.38;59.98
60246;BME280;46107;53.356;-1.524;2023-05-24T01:03:36;99869.63;;;8.94;62.40
60246;BME280;46107;53.356;-1.524;2023-05-24T01:06:06;99873.75;;;9.31;62.99
60246;BME280;46107;53.356;-1.524;2023-05-24T01:08:49;99872.63;;;9.41;63.42
60246;BME280;46107;53.356;-1.524;2023-05-24T01:11:27;99870.13;;;10.38;61.01
60246;BME280;46107;53.356;-1.524;2023-05-24T01:14:05;99870.53;;;9.69;63.08
60246;BME280;46107;53.356;-1.524;2023-05-24T01:16:44;99870.30;;;10.02;62.33
60246;BME280;46107;53.356;-1.524;2023-05-24T01:19:36;99870.83;;;8.41;67.19
60246;BME280;46107;53.356;-1.524;2023-05-24T01:22:17;99876.56;;;7.88;69.10
60246;BME280;46107;53.356;-1.524;2023-05-24T01:25:00;99864.89;;;8.94;66.27
60246;BME280;46107;53.356;-1.524;2023-05-24T01:27:30;99867.33;;;8.42;68.41
60246;BME280;46107;53.356;-1.524;2023-05-24T01:29:58;99873.46;;;8.83;65.58
60246;BME280;46107;53.356;-1.524;2023-05-24T01:32:28;99871.71;;;9.84;64.16
60246;BME280;46107;53.356;-1.524;2023-05-24T01:34:55;99870.65;;;9.61;63.53
60246;BME280;46107;53.356;-1.524;2023-05-24T01:37:23;99873.61;;;8.59;66.78
60246;BME280;46107;53.356;-1.524;2023-05-24T01:39:51;99874.64;;;8.75;66.55
60246;BME280;46107;53.356;-1.524;2023-05-24T01:42:24;99878.19;;;8.95;65.53
60246;BME280;46107;53.356;-1.524;2023-05-24T01:45:05;99874.78;;;8.72;65.55
60246;BME280;46107;53.356;-1.524;2023-05-24T01:47:43;99872.19;;;9.43;63.66
60246;BME280;46107;53.356;-1.524;2023-05-24T01:50:17;99866.57;;;9.43;63.94
60246;BME280;46107;53.356;-1.524;2023-05-24T01:52:49;99868.64;;;9.59;63.41
60246;BME280;46107;53.356;-1.524;2023-05-24T01:55:18;99869.10;;;9.11;65.06
60246;BME280;46107;53.356;-1.524;2023-05-24T01:57:49;99864.94;;;9.24;64.01
60246;BME280;46107;53.356;-1.524;2023-05-24T02:00:18;99866.41;;;8.99;64.79
60246;BME280;46107;53.356;-1.524;2023-05-24T02:02:47;99867.18;;;9.99;62.07
60246;BME280;46107;53.356;-1.524;2023-05-24T02:05:14;99864.28;;;9.11;64.10
60246;BME280;46107;53.356;-1.524;2023-05-24T02:07:42;99863.54;;;10.31;61.27
60246;BME280;46107;53.356;-1.524;2023-05-24T02:10:10;99866.08;;;9.46;62.72
60246;BME280;46107;53.356;-1.524;2023-05-24T02:12:37;99871.29;;;9.48;62.56
60246;BME280;46107;53.356;-1.524;2023-05-24T02:15:06;99877.77;;;9.45;63.04
60246;BME280;46107;53.356;-1.524;2023-05-24T02:17:33;99874.93;;;10.10;60.74
60246;BME280;46107;53.356;-1.524;2023-05-24T02:20:01;99875.11;;;9.03;62.52
60246;BME280;46107;53.356;-1.524;2023-05-24T02:22:30;99872.92;;;10.27;60.28
60246;BME280;46107;53.356;-1.524;2023-05-24T02:24:58;99873.36;;;8.85;63.32
60246;BME280;46107;53.356;-1.524;2023-05-24T02:27:25;99872.73;;;9.57;61.97
60246;BME280;46107;53.356;-1.524;2023-05-24T02:29:53;99860.00;;;10.58;58.37
60246;BME280;46107;53.356;-1.524;2023-05-24T02:32:21;99853.50;;;10.98;57.56
60246;BME280;46107;53.356;-1.524;2023-05-24T02:34:48;99856.61;;;11.20;56.67
60246;BME280;46107;53.356;-1.524;2023-05-24T02:37:16;99860.30;;;10.01;59.18
60246;BME280;46107;53.356;-1.524;2023-05-24T02:39:43;99857.21;;;10.99;56.56
60246;BME280;46107;53.356;-1.524;2023-05-24T02:42:10;99851.24;;;11.02;56.55
60246;BME280;46107;53.356;-1.524;2023-05-24T02:44:37;99847.08;;;11.63;55.12
60246;BME280;46107;53.356;-1.524;2023-05-24T02:47:06;99844.86;;;10.88;55.68
60246;BME280;46107;53.356;-1.524;2023-05-24T02:49:33;99847.73;;;11.09;55.98
60246;BME280;46107;53.356;-1.524;2023-05-24T02:52:01;99844.51;;;10.80;56.70
60246;BME280;46107;53.356;-1.524;2023-05-24T02:54:28;99843.59;;;10.14;58.78
60246;BME280;46107;53.356;-1.524;2023-05-24T02:56:55;99841.42;;;10.43;57.48
60246;BME280;46107;53.356;-1.524;2023-05-24T02:59:23;99840.34;;;10.52;57.75
60246;BME280;46107;53.356;-1.524;2023-05-24T03:01:51;99840.68;;;10.78;56.73
60246;BME280;46107;53.356;-1.524;2023-05-24T03:04:19;99844.71;;;10.87;56.60
60246;BME280;46107;53.356;-1.524;2023-05-24T03:06:51;99851.45;;;9.57;59.97
60246;BME280;46107;53.356;-1.524;2023-05-24T03:09:19;99851.95;;;8.71;63.72
60246;BME280;46107;53.356;-1.524;2023-05-24T03:11:46;99851.82;;;9.39;62.83
60246;BME280;46107;53.356;-1.524;2023-05-24T03:14:14;99855.57;;;9.70;61.43
60246;BME280;46107;53.356;-1.524;2023-05-24T03:16:42;99852.39;;;9.31;61.79
60246;BME280;46107;53.356;-1.524;2023-05-24T03:19:09;99851.49;;;9.05;64.01
60246;BME280;46107;53.356;-1.524;2023-05-24T03:21:37;99852.88;;;9.61;61.79
60246;BME280;46107;53.356;-1.524;2023-05-24T03:24:05;99849.87;;;9.35;63.89
60246;BME280;46107;53.356;-1.524;2023-05-24T03:26:32;99848.32;;;8.95;64.44
60246;BME280;46107;53.356;-1.524;2023-05-24T03:28:59;99845.01;;;8.96;64.52
60246;BME280;46107;53.356;-1.524;2023-05-24T03:31:27;99843.97;;;9.63;62.75
60246;BME280;46107;53.356;-1.524;2023-05-24T03:33:54;99840.30;;;9.49;62.22
60246;BME280;46107;53.356;-1.524;2023-05-24T03:36:22;99839.77;;;8.61;65.92
60246;BME280;46107;53.356;-1.524;2023-05-24T03:38:49;99839.39;;;8.92;65.35
60246;BME280;46107;53.356;-1.524;2023-05-24T03:41:21;99839.54;;;10.01;61.74
60246;BME280;46107;53.356;-1.524;2023-05-24T03:43:49;99836.12;;;9.44;62.23
60246;BME280;46107;53.356;-1.524;2023-05-24T03:46:16;99833.07;;;9.86;61.47
60246;BME280;46107;53.356;-1.524;2023-05-24T03:48:44;99825.80;;;10.19;60.36
60246;BME280;46107;53.356;-1.524;2023-05-24T03:51:12;99821.48;;;9.70;60.15
60246;BME280;46107;53.356;-1.524;2023-05-24T03:53:39;99812.58;;;10.60;58.07
60246;BME280;46107;53.356;-1.524;2023-05-24T03:56:06;99814.27;;;10.20;58.78
60246;BME280;46107;53.356;-1.524;2023-05-24T03:58:34;99814.66;;;9.96;59.06
60246;BME280;46107;53.356;-1.524;2023-05-24T04:01:01;99819.21;;;9.77;60.97
60246;BME280;46107;53.356;-1.524;2023-05-24T04:03:29;99821.12;;;9.19;63.35
60246;BME280;46107;53.356;-1.524;2023-05-24T04:05:57;99824.10;;;8.66;63.64
60246;BME280;46107;53.356;-1.524;2023-05-24T04:08:24;99823.42;;;8.68;64.89
60246;BME280;46107;53.356;-1.524;2023-05-24T04:10:52;99825.09;;;8.81;64.97
60246;BME280;46107;53.356;-1.524;2023-05-24T04:13:20;99827.44;;;9.52;63.40
60246;BME280;46107;53.356;-1.524;2023-05-24T04:15:48;99824.99;;;8.63;66.24
60246;BME280;46107;53.356;-1.524;2023-05-24T04:18:16;99828.37;;;9.46;63.94
60246;BME280;46107;53.356;-1.524;2023-05-24T04:20:44;99830.34;;;8.92;64.24
60246;BME280;46107;53.356;-1.524;2023-05-24T04:23:11;99830.86;;;8.82;64.58
60246;BME280;46107;53.356;-1.524;2023-05-24T04:25:39;99835.72;;;9.42;62.96
60246;BME280;46107;53.356;-1.524;2023-05-24T04:28:07;99837.26;;;9.30;62.78
60246;BME280;46107;53.356;-1.524;2023-05-24T04:30:35;99831.50;;;9.55;61.75
60246;BME280;46107;53.356;-1.524;2023-05-24T04:33:03;99830.35;;;9.94;61.12
60246;BME280;46107;53.356;-1.524;2023-05-24T04:35:31;99833.76;;;9.44;62.66
60246;BME280;46107;53.356;-1.524;2023-05-24T04:37:58;99838.00;;;9.36;62.85
60246;BME280;46107;53.356;-1.524;2023-05-24T04:40:27;99834.48;;;9.43;64.25
60246;BME280;46107;53.356;-1.524;2023-05-24T04:42:54;99830.72;;;9.68;61.75
60246;BME280;46107;53.356;-1.524;2023-05-24T04:45:25;99827.57;;;9.25;64.29
60246;BME280;46107;53.356;-1.524;2023-05-24T04:47:53;99832.52;;;8.88;64.51
60246;BME280;46107;53.356;-1.524;2023-05-24T04:50:21;99834.09;;;9.60;63.21
60246;BME280;46107;53.356;-1.524;2023-05-24T04:52:47;99840.72;;;9.36;64.38
60246;BME280;46107;53.356;-1.524;2023-05-24T04:55:15;99839.24;;;9.58;63.58
60246;BME280;46107;53.356;-1.524;2023-05-24T04:57:43;99837.13;;;9.49;63.01
60246;BME280;46107;53.356;-1.524;2023-05-24T05:00:12;99841.26;;;9.04;65.04
60246;BME280;46107;53.356;-1.524;2023-05-24T05:02:40;99844.72;;;10.28;61.34
60246;BME280;46107;53.356;-1.524;2023-05-24T05:05:07;99840.78;;;9.16;63.68
60246;BME280;46107;53.356;-1.524;2023-05-24T05:07:36;99846.66;;;9.92;61.11
60246;BME280;46107;53.356;-1.524;2023-05-24T05:10:04;99845.48;;;10.09;61.23
60246;BME280;46107;53.356;-1.524;2023-05-24T05:12:32;99841.50;;;10.60;58.82
60246;BME280;46107;53.356;-1.524;2023-05-24T05:14:59;99845.94;;;9.32;60.62
60246;BME280;46107;53.356;-1.524;2023-05-24T05:17:27;99848.51;;;10.64;58.99
60246;BME280;46107;53.356;-1.524;2023-05-24T05:19:55;99864.47;;;10.38;60.03
60246;BME280;46107;53.356;-1.524;2023-05-24T05:22:22;99869.10;;;9.95;61.41
60246;BME280;46107;53.356;-1.524;2023-05-24T05:24:51;99869.83;;;10.08;60.16
60246;BME280;46107;53.356;-1.524;2023-05-24T05:27:19;99880.75;;;9.67;62.23
60246;BME280;46107;53.356;-1.524;2023-05-24T05:29:46;99866.51;;;10.81;59.32
60246;BME280;46107;53.356;-1.524;2023-05-24T05:32:14;99860.21;;;10.17;58.37
60246;BME280;46107;53.356;-1.524;2023-05-24T05:34:41;99858.91;;;10.62;58.92
60246;BME280;46107;53.356;-1.524;2023-05-24T05:37:09;99860.52;;;10.35;58.63
60246;BME280;46107;53.356;-1.524;2023-05-24T05:39:36;99864.22;;;9.96;58.43
60246;BME280;46107;53.356;-1.524;2023-05-24T05:42:04;99855.22;;;10.61;57.58
60246;BME280;46107;53.356;-1.524;2023-05-24T05:44:32;99860.72;;;10.26;59.89
60246;BME280;46107;53.356;-1.524;2023-05-24T05:46:59;99864.87;;;8.50;63.67
60246;BME280;46107;53.356;-1.524;2023-05-24T05:49:26;99863.40;;;9.98;60.51
60246;BME280;46107;53.356;-1.524;2023-05-24T05:51:54;99867.73;;;9.32;60.81
60246;BME280;46107;53.356;-1.524;2023-05-24T05:54:22;99864.14;;;10.97;56.94
60246;BME280;46107;53.356;-1.524;2023-05-24T05:56:50;99863.08;;;10.72;57.63
60246;BME280;46107;53.356;-1.524;2023-05-24T05:59:18;99858.76;;;11.26;56.95
60246;BME280;46107;53.356;-1.524;2023-05-24T06:01:45;99857.91;;;11.44;55.71
60246;BME280;46107;53.356;-1.524;2023-05-24T06:04:14;99860.65;;;11.97;54.85
60246;BME280;46107;53.356;-1.524;2023-05-24T06:06:42;99864.41;;;11.76;53.07
60246;BME280;46107;53.356;-1.524;2023-05-24T06:09:10;99861.94;;;11.82;53.48
60246;BME280;46107;53.356;-1.524;2023-05-24T06:11:38;99858.60;;;12.17;51.31
60246;BME280;46107;53.356;-1.524;2023-05-24T06:14:06;99862.74;;;11.89;52.70
60246;BME280;46107;53.356;-1.524;2023-05-24T06:16:33;99864.28;;;11.83;51.95
60246;BME280;46107;53.356;-1.524;2023-05-24T06:19:02;99866.31;;;11.92;52.10
60246;BME280;46107;53.356;-1.524;2023-05-24T06:21:29;99864.27;;;12.13;51.73
60246;BME280;46107;53.356;-1.524;2023-05-24T06:23:57;99865.60;;;11.20;54.34
60246;BME280;46107;53.356;-1.524;2023-05-24T06:26:24;99868.28;;;11.80;54.17
60246;BME280;46107;53.356;-1.524;2023-05-24T06:28:52;99871.89;;;10.74;55.65
60246;BME280;46107;53.356;-1.524;2023-05-24T06:31:19;99873.41;;;11.86;51.51
60246;BME280;46107;53.356;-1.524;2023-05-24T06:33:46;99881.98;;;12.30;52.04
60246;BME280;46107;53.356;-1.524;2023-05-24T06:36:13;99885.91;;;12.10;51.26
60246;BME280;46107;53.356;-1.524;2023-05-24T06:38:41;99891.09;;;11.67;51.44
60246;BME280;46107;53.356;-1.524;2023-05-24T06:41:08;99891.80;;;11.89;52.84
60246;BME280;46107;53.356;-1.524;2023-05-24T06:43:37;99893.38;;;11.83;52.87
60246;BME280;46107;53.356;-1.524;2023-05-24T06:46:04;99896.69;;;12.10;52.09
60246;BME280;46107;53.356;-1.524;2023-05-24T06:48:31;99892.18;;;12.72;49.59
60246;BME280;46107;53.356;-1.524;2023-05-24T06:50:59;99896.27;;;12.05;51.12
60246;BME280;46107;53.356;-1.524;2023-05-24T06:53:28;99893.06;;;13.09;50.47
60246;BME280;46107;53.356;-1.524;2023-05-24T06:55:56;99892.57;;;12.35;50.54
60246;BME280;46107;53.356;-1.524;2023-05-24T06:58:24;99897.01;;;12.61;49.84
60246;BME280;46107;53.356;-1.524;2023-05-24T07:00:51;99895.56;;;12.45;50.36
60246;BME280;46107;53.356;-1.524;2023-05-24T07:03:19;99895.50;;;12.60;50.28
60246;BME280;46107;53.356;-1.524;2023-05-24T07:05:47;99890.16;;;13.52;48.45
60246;BME280;46107;53.356;-1.524;2023-05-24T07:08:14;99890.20;;;12.93;47.56
60246;BME280;46107;53.356;-1.524;2023-05-24T07:10:42;99894.41;;;13.71;46.24
60246;BME280;46107;53.356;-1.524;2023-05-24T07:13:09;99898.07;;;13.67;46.23
60246;BME280;46107;53.356;-1.524;2023-05-24T07:15:38;99897.03;;;12.58;48.54
60246;BME280;46107;53.356;-1.524;2023-05-24T07:18:06;99897.06;;;14.33;44.37
60246;BME280;46107;53.356;-1.524;2023-05-24T07:20:34;99897.60;;;13.27;47.78
60246;BME280;46107;53.356;-1.524;2023-05-24T07:23:01;99902.33;;;13.45;46.45
60246;BME280;46107;53.356;-1.524;2023-05-24T07:25:29;99897.63;;;13.06;46.34
60246;BME280;46107;53.356;-1.524;2023-05-24T07:27:56;99900.12;;;13.58;44.83
60246;BME280;46107;53.356;-1.524;2023-05-24T07:30:23;99902.01;;;14.41;43.86
60246;BME280;46107;53.356;-1.524;2023-05-24T07:32:51;99903.37;;;14.71;44.39
60246;BME280;46107;53.356;-1.524;2023-05-24T07:35:18;99899.05;;;14.94;42.86
60246;BME280;46107;53.356;-1.524;2023-05-24T07:37:47;99901.57;;;13.84;44.03
60246;BME280;46107;53.356;-1.524;2023-05-24T07:40:14;99901.98;;;14.51;44.16
60246;BME280;46107;53.356;-1.524;2023-05-24T07:42:42;99897.93;;;14.44;43.74
60246;BME280;46107;53.356;-1.524;2023-05-24T07:45:10;99893.11;;;14.48;42.92
60246;BME280;46107;53.356;-1.524;2023-05-24T07:47:38;99894.52;;;15.12;44.05
60246;BME280;46107;53.356;-1.524;2023-05-24T07:50:06;99901.20;;;14.00;43.65
60246;BME280;46107;53.356;-1.524;2023-05-24T07:52:34;99899.35;;;15.08;41.13
60246;BME280;46107;53.356;-1.524;2023-05-24T07:55:01;99903.82;;;15.05;42.22
60246;BME280;46107;53.356;-1.524;2023-05-24T07:57:29;99912.32;;;14.18;41.42
60246;BME280;46107;53.356;-1.524;2023-05-24T07:59:56;99908.69;;;14.63;39.88
60246;BME280;46107;53.356;-1.524;2023-05-24T08:02:23;99914.24;;;14.27;43.92
60246;BME280;46107;53.356;-1.524;2023-05-24T08:04:55;99906.33;;;15.37;40.80
60246;BME280;46107;53.356;-1.524;2023-05-24T08:07:22;99902.06;;;15.60;42.81
60246;BME280;46107;53.356;-1.524;2023-05-24T08:09:50;99901.47;;;14.48;41.46
60246;BME280;46107;53.356;-1.524;2023-05-24T08:12:17;99907.38;;;15.04;42.48
60246;BME280;46107;53.356;-1.524;2023-05-24T08:14:45;99909.02;;;14.04;41.29
60246;BME280;46107;53.356;-1.524;2023-05-24T08:17:12;99903.11;;;13.96;40.72
60246;BME280;46107;53.356;-1.524;2023-05-24T08:19:39;99897.78;;;14.72;41.30
60246;BME280;46107;53.356;-1.524;2023-05-24T08:22:07;99900.75;;;16.11;38.87
60246;BME280;46107;53.356;-1.524;2023-05-24T08:24:34;99900.03;;;16.54;38.42
60246;BME280;46107;53.356;-1.524;2023-05-24T08:27:02;99897.38;;;15.56;38.29
60246;BME280;46107;53.356;-1.524;2023-05-24T08:29:29;99904.65;;;15.11;39.99
60246;BME280;46107;53.356;-1.524;2023-05-24T08:31:57;99895.64;;;15.83;39.46
60246;BME280;46107;53.356;-1.524;2023-05-24T08:34:25;99891.25;;;15.71;37.60
60246;BME280;46107;53.356;-1.524;2023-05-24T08:36:52;99890.11;;;16.13;37.26
60246;BME280;46107;53.356;-1.524;2023-05-24T08:39:20;99885.81;;;16.96;34.04
60246;BME280;46107;53.356;-1.524;2023-05-24T08:41:47;99894.88;;;17.08;34.79
60246;BME280;46107;53.356;-1.524;2023-05-24T08:44:15;99896.63;;;17.52;37.48
60246;BME280;46107;53.356;-1.524;2023-05-24T08:46:43;99898.22;;;18.07;35.46
60246;BME280;46107;53.356;-1.524;2023-05-24T08:49:11;99898.27;;;18.31;36.84
60246;BME280;46107;53.356;-1.524;2023-05-24T08:51:39;99893.30;;;18.16;35.12
60246;BME280;46107;53.356;-1.524;2023-05-24T08:54:09;99894.93;;;17.13;33.91
60246;BME280;46107;53.356;-1.524;2023-05-24T08:56:37;99892.63;;;16.52;36.65
60246;BME280;46107;53.356;-1.524;2023-05-24T08:59:07;99898.02;;;17.86;32.76
60246;BME280;46107;53.356;-1.524;2023-05-24T09:01:36;99903.63;;;16.84;34.80
60246;BME280;46107;53.356;-1.524;2023-05-24T09:04:07;99897.67;;;16.99;37.96
60246;BME280;46107;53.356;-1.524;2023-05-24T09:06:35;99897.87;;;15.59;36.87
60246;BME280;46107;53.356;-1.524;2023-05-24T09:09:03;99896.86;;;17.15;36.19
60246;BME280;46107;53.356;-1.524;2023-05-24T09:11:33;99902.47;;;18.23;33.22
60246;BME280;46107;53.356;-1.524;2023-05-24T09:14:02;99898.16;;;17.48;34.18
60246;BME280;46107;53.356;-1.524;2023-05-24T09:16:29;99890.99;;;17.09;32.43
60246;BME280;46107;53.356;-1.524;2023-05-24T09:18:58;99890.72;;;17.51;31.06
60246;BME280;46107;53.356;-1.524;2023-05-24T09:21:26;99890.93;;;18.33;30.37
60246;BME280;46107;53.356;-1.524;2023-05-24T09:23:54;99894.68;;;18.05;31.69
60246;BME280;46107;53.356;-1.524;2023-05-24T09:26:22;99894.35;;;18.32;34.81
60246;BME280;46107;53.356;-1.524;2023-05-24T09:28:49;99895.64;;;18.62;36.08
60246;BME280;46107;53.356;-1.524;2023-05-24T09:31:31;99898.06;;;17.99;35.10
60246;BME280;46107;53.356;-1.524;2023-05-24T09:33:59;99890.22;;;17.41;35.37
60246;BME280;46107;53.356;-1.524;2023-05-24T09:36:27;99886.00;;;17.15;35.44
60246;BME280;46107;53.356;-1.524;2023-05-24T09:39:05;99891.38;;;17.47;34.48
60246;BME280;46107;53.356;-1.524;2023-05-24T09:41:32;99892.45;;;18.29;34.81
60246;BME280;46107;53.356;-1.524;2023-05-24T09:44:01;99897.35;;;17.69;34.46
60246;BME280;46107;53.356;-1.524;2023-05-24T09:46:31;99896.34;;;18.45;32.29
60246;BME280;46107;53.356;-1.524;2023-05-24T09:49:01;99894.43;;;17.38;35.82
60246;BME280;46107;53.356;-1.524;2023-05-24T09:51:29;99896.22;;;17.71;38.12
60246;BME280;46107;53.356;-1.524;2023-05-24T09:54:05;99891.87;;;16.61;33.46
60246;BME280;46107;53.356;-1.524;2023-05-24T09:56:33;99895.83;;;16.54;31.31
60246;BME280;46107;53.356;-1.524;2023-05-24T09:59:05;99885.48;;;16.54;33.36
60246;BME280;46107;53.356;-1.524;2023-05-24T10:01:33;99887.83;;;18.24;31.57
60246;BME280;46107;53.356;-1.524;2023-05-24T10:04:00;99883.14;;;16.59;32.82
60246;BME280;46107;53.356;-1.524;2023-05-24T10:06:28;99884.42;;;15.80;34.05
60246;BME280;46107;53.356;-1.524;2023-05-24T10:08:58;99882.73;;;17.46;34.53
60246;BME280;46107;53.356;-1.524;2023-05-24T10:11:26;99877.56;;;17.52;34.27
60246;BME280;46107;53.356;-1.524;2023-05-24T10:13:54;99874.67;;;17.63;32.94
60246;BME280;46107;53.356;-1.524;2023-05-24T10:16:22;99875.23;;;18.26;31.13
60246;BME280;46107;53.356;-1.524;2023-05-24T10:18:50;99879.40;;;18.48;36.31
60246;BME280;46107;53.356;-1.524;2023-05-24T10:21:19;99877.08;;;18.20;30.95
60246;BME280;46107;53.356;-1.524;2023-05-24T10:23:51;99882.85;;;18.70;31.31
60246;BME280;46107;53.356;-1.524;2023-05-24T10:26:24;99879.33;;;18.20;32.61
60246;BME280;46107;53.356;-1.524;2023-05-24T10:28:55;99882.15;;;18.04;35.67
60246;BME280;46107;53.356;-1.524;2023-05-24T10:31:29;99880.20;;;18.65;33.60
60246;BME280;46107;53.356;-1.524;2023-05-24T10:33:59;99879.06;;;18.17;34.76
60246;BME280;46107;53.356;-1.524;2023-05-24T10:36:27;99883.48;;;17.62;35.12
60246;BME280;46107;53.356;-1.524;2023-05-24T10:38:55;99878.78;;;18.30;34.15
60246;BME280;46107;53.356;-1.524;2023-05-24T10:41:25;99875.88;;;19.32;30.50
60246;BME280;46107;53.356;-1.524;2023-05-24T10:43:53;99879.70;;;18.53;31.49
60246;BME280;46107;53.356;-1.524;2023-05-24T10:46:21;99874.64;;;19.32;29.29
60246;BME280;46107;53.356;-1.524;2023-05-24T10:48:59;99871.02;;;18.13;33.01
60246;BME280;46107;53.356;-1.524;2023-05-24T10:51:33;99866.55;;;18.69;31.55
60246;BME280;46107;53.356;-1.524;2023-05-24T10:54:17;99869.60;;;19.49;29.99
60246;BME280;46107;53.356;-1.524;2023-05-24T10:56:49;99863.75;;;17.29;30.55
60246;BME280;46107;53.356;-1.524;2023-05-24T10:59:29;99870.11;;;18.46;31.51
60246;BME280;46107;53.356;-1.524;2023-05-24T11:01:58;99862.55;;;19.06;31.15
60246;BME280;46107;53.356;-1.524;2023-05-24T11:04:30;99862.48;;;18.66;34.48
60246;BME280;46107;53.356;-1.524;2023-05-24T11:07:01;99867.07;;;19.42;34.10
60246;BME280;46107;53.356;-1.524;2023-05-24T11:09:31;99868.88;;;18.51;34.29
60246;BME280;46107;53.356;-1.524;2023-05-24T11:12:01;99870.18;;;19.01;32.14
60246;BME280;46107;53.356;-1.524;2023-05-24T11:14:30;99870.14;;;18.69;31.50
60246;BME280;46107;53.356;-1.524;2023-05-24T11:17:00;99870.29;;;18.26;33.33
60246;BME280;46107;53.356;-1.524;2023-05-24T11:19:32;99863.43;;;19.39;32.49
60246;BME280;46107;53.356;-1.524;2023-05-24T11:22:02;99873.98;;;18.68;30.39
60246;BME280;46107;53.356;-1.524;2023-05-24T11:24:31;99866.64;;;19.08;29.68
60246;BME280;46107;53.356;-1.524;2023-05-24T11:27:00;99872.56;;;17.92;30.38
60246;BME280;46107;53.356;-1.524;2023-05-24T11:29:29;99872.46;;;16.44;33.49
60246;BME280;46107;53.356;-1.524;2023-05-24T11:31:57;99868.93;;;18.63;32.90
60246;BME280;46107;53.356;-1.524;2023-05-24T11:34:25;99864.08;;;18.99;36.39
60246;BME280;46107;53.356;-1.524;2023-05-24T11:36:53;99866.59;;;18.63;29.72
60246;BME280;46107;53.356;-1.524;2023-05-24T11:39:20;99862.64;;;18.75;31.84
60246;BME280;46107;53.356;-1.524;2023-05-24T11:41:48;99872.71;;;18.09;31.40
60246;BME280;46107;53.356;-1.524;2023-05-24T11:44:17;99870.26;;;18.83;31.24
60246;BME280;46107;53.356;-1.524;2023-05-24T11:46:44;99865.25;;;18.98;30.64
60246;BME280;46107;53.356;-1.524;2023-05-24T11:49:13;99870.70;;;19.38;33.39
60246;BME280;46107;53.356;-1.524;2023-05-24T11:51:42;99868.54;;;18.87;31.18
60246;BME280;46107;53.356;-1.524;2023-05-24T11:54:10;99871.11;;;17.44;31.34
60246;BME280;46107;53.356;-1.524;2023-05-24T11:56:37;99870.16;;;18.67;31.04
60246;BME280;46107;53.356;-1.524;2023-05-24T11:59:10;99865.28;;;18.51;32.70
60246;BME280;46107;53.356;-1.524;2023-05-24T12:01:41;99868.46;;;17.81;31.26
60246;BME280;46107;53.356;-1.524;2023-05-24T12:04:14;99860.15;;;18.81;31.21
60246;BME280;46107;53.356;-1.524;2023-05-24T12:06:42;99866.77;;;18.58;35.78
60246;BME280;46107;53.356;-1.524;2023-05-24T12:09:11;99868.78;;;19.97;31.87
60246;BME280;46107;53.356;-1.524;2023-05-24T12:11:40;99872.51;;;18.61;33.21
60246;BME280;46107;53.356;-1.524;2023-05-24T12:14:11;99865.58;;;19.35;34.47
60246;BME280;46107;53.356;-1.524;2023-05-24T12:16:41;99868.76;;;18.95;34.95
60246;BME280;46107;53.356;-1.524;2023-05-24T12:19:15;99876.93;;;17.49;36.76
60246;BME280;46107;53.356;-1.524;2023-05-24T12:21:44;99875.79;;;18.16;36.07
60246;BME280;46107;53.356;-1.524;2023-05-24T12:24:13;99878.28;;;16.34;38.19
60246;BME280;46107;53.356;-1.524;2023-05-24T12:26:42;99881.23;;;17.15;34.26
60246;BME280;46107;53.356;-1.524;2023-05-24T12:29:11;99888.50;;;16.65;34.29
60246;BME280;46107;53.356;-1.524;2023-05-24T12:31:40;99894.04;;;17.35;37.49
60246;BME280;46107;53.356;-1.524;2023-05-24T12:34:11;99889.00;;;17.08;34.63
60246;BME280;46107;53.356;-1.524;2023-05-24T12:36:39;99885.87;;;16.97;35.78
60246;BME280;46107;53.356;-1.524;2023-05-24T12:39:23;99891.83;;;17.30;33.70
60246;BME280;46107;53.356;-1.524;2023-05-24T12:41:53;99893.44;;;16.86;34.82
60246;BME280;46107;53.356;-1.524;2023-05-24T12:44:23;99889.43;;;16.43;34.86
60246;BME280;46107;53.356;-1.524;2023-05-24T12:46:51;99892.15;;;16.77;38.03
60246;BME280;46107;53.356;-1.524;2023-05-24T12:49:18;99891.73;;;16.10;37.54
60246;BME280;46107;53.356;-1.524;2023-05-24T12:51:46;99893.33;;;17.64;38.14
60246;BME280;46107;53.356;-1.524;2023-05-24T12:54:13;99893.89;;;16.74;36.45
60246;BME280;46107;53.356;-1.524;2023-05-24T12:56:41;99892.80;;;16.69;36.38
60246;BME280;46107;53.356;-1.524;2023-05-24T12:59:09;99890.00;;;18.08;35.34
60246;BME280;46107;53.356;-1.524;2023-05-24T13:01:36;99892.13;;;18.43;35.37